Accueil
METAR-TAF:

METAR-TAF

Aéroports :

Base aérienne Cameri

Novare, Italie

latitude: 45-31N, longitude: 008-40E, altitude: 178 m

Observation

Le bulletin a été fait il y a 4 heures et 22 minutes, à 17:55 UTC
Vent calme
Température 1°C
Humidité 100%
Pression 1006 hPa
Visibilité: 0100 m
brouillard

METAR: LIMN 031755Z 00000KT 0100 FG VV001 01/01 Q1006 RMK VIS MIN 0100 RED

Heure: 23:17 (22:17 UTC)

Prévision

Le bulletin a été fait il y a 5 heures et 17 minutes, à 17:00 UTC
Prévision valable du 03 à 18 UTC au 04 à 03 UTC
Vent 3 kt de direction variable
Visibilité: 0100 m
Ciel couvert à une hauteur de 100 ft
brouillard
Evoluant progressivement
du 03 à 23 UTC au 04 à 01 UTC
Visibilité: 0900 m
pluie, neige

TAF: LIMN 031700Z 0318/0403 VRB03KT 0100 FG OVC001 BECMG 0323/0401 0900 RASN

Observations et prévisions météorologiques de plus de 4000 aéroports (messages METAR et TAF).

Les stations disponibles sont représentées par des disques jaunes et rouges sur la carte.

Passer la souris dessus pour voir le nom de la station.

Cliquer dessus pour voir les observations et prévisions météorologiques.

Pour changer de carte: cliquez sur les boutons verts avec une croix noire pour zoomer, sur le bouton vert avec un tiret pour effectuer un zoom arrière, ou sur les flèches vertes pour les cartes adjacentes.


METAR-TAF: